Time;durP1;ratioP1;P1;durP2;ratioP2;P2;SDS_P1;SDS_P2;PMS_P1;PMS_P2;Temp;Humidity;BMP_temperature;BMP_pressure;BME280_temperature;BME280_humidity;BME280_pressure;Samples;Min_cycle;Max_cycle;Signal;HPM_P1;HPM_P2
2023/09/17 00:01:09;;;;;;;9.85;4.38;;;;;;;;;;5040824;28;98747;-78
2023/09/17 00:03:35;;;;;;;10.00;5.45;;;;;;;;;;5011893;28;100852;-79
2023/09/17 00:06:03;;;;;;;13.70;5.65;;;;;;;;;;5019560;28;98798;-79
2023/09/17 00:08:30;;;;;;;8.60;4.57;;;;;;;;;;5019934;28;97518;-79
2023/09/17 00:10:56;;;;;;;11.18;5.40;;;;;;;;;;5019479;28;100165;-79
2023/09/17 00:13:23;;;;;;;10.38;5.28;;;;;;;;;;5036808;28;98723;-79
2023/09/17 00:15:52;;;;;;;8.55;4.68;;;;;;;;;;5002436;28;99040;-79
2023/09/17 00:18:18;;;;;;;9.20;4.97;;;;;;;;;;5026368;28;99523;-79
2023/09/17 00:20:45;;;;;;;8.75;4.70;;;;;;;;;;5023307;28;99109;-79
2023/09/17 00:23:11;;;;;;;10.18;5.00;;;;;;;;;;5012954;28;98148;-79
2023/09/17 00:25:40;;;;;;;9.82;5.10;;;;;;;;;;5037391;28;98651;-80
2023/09/17 00:28:07;;;;;;;8.98;5.00;;;;;;;;;;5037644;28;98311;-81
2023/09/17 00:30:34;;;;;;;10.02;6.05;;;;;;;;;;5002647;28;101379;-80
2023/09/17 00:33:00;;;;;;;10.48;5.30;;;;;;;;;;5002848;28;100936;-80
2023/09/17 00:35:27;;;;;;;10.05;5.90;;;;;;;;;;5037238;28;98185;-80
2023/09/17 00:37:53;;;;;;;9.73;4.80;;;;;;;;;;5019192;28;101231;-79
2023/09/17 00:40:20;;;;;;;10.38;6.10;;;;;;;;;;5036344;28;99593;-79
2023/09/17 00:42:48;;;;;;;10.20;5.50;;;;;;;;;;5002871;28;98137;-79
2023/09/17 00:45:15;;;;;;;10.73;5.30;;;;;;;;;;5014102;28;98981;-78
2023/09/17 00:47:42;;;;;;;8.80;4.90;;;;;;;;;;5037222;28;98596;-79
2023/09/17 00:50:10;;;;;;;9.07;5.45;;;;;;;;;;5037921;28;98773;-78
2023/09/17 00:52:38;;;;;;;9.95;5.63;;;;;;;;;;5040202;28;98793;-78
2023/09/17 00:55:06;;;;;;;9.32;5.43;;;;;;;;;;5022059;28;98243;-78
2023/09/17 00:57:34;;;;;;;10.30;5.32;;;;;;;;;;5040911;28;98452;-79
2023/09/17 01:00:08;;;;;;;;;;;;;;;;;;5040534;28;98743;-79
2023/09/17 01:02:36;;;;;;;13.10;5.75;;;;;;;;;;5013510;28;98222;-79
2023/09/17 01:05:04;;;;;;;9.48;5.38;;;;;;;;;;5040095;28;99441;-79
2023/09/17 01:07:32;;;;;;;10.25;5.70;;;;;;;;;;5022001;28;98234;-79
2023/09/17 01:09:59;;;;;;;10.07;5.35;;;;;;;;;;5040222;28;98711;-80
2023/09/17 01:12:26;;;;;;;9.60;5.50;;;;;;;;;;5021374;28;101376;-79
2023/09/17 01:14:54;;;;;;;9.50;5.10;;;;;;;;;;5021882;28;98281;-80
2023/09/17 01:17:27;;;;;;;10.32;5.75;;;;;;;;;;5014304;28;98495;-80
2023/09/17 01:19:54;;;;;;;10.40;5.65;;;;;;;;;;5005320;28;101423;-79
2023/09/17 01:22:21;;;;;;;10.13;5.53;;;;;;;;;;5037884;28;98263;-80
2023/09/17 01:24:51;;;;;;;8.98;5.20;;;;;;;;;;5013547;28;101284;-80
2023/09/17 01:27:20;;;;;;;11.23;6.50;;;;;;;;;;5042969;28;99653;-80
2023/09/17 01:29:47;;;;;;;9.45;5.85;;;;;;;;;;5039669;28;99085;-79
2023/09/17 01:32:14;;;;;;;9.43;5.80;;;;;;;;;;5039620;28;99141;-79
2023/09/17 01:34:42;;;;;;;10.65;5.68;;;;;;;;;;5040371;28;98603;-80
2023/09/17 01:37:16;;;;;;;12.07;5.00;;;;;;;;;;5040393;28;99228;-80
2023/09/17 01:39:48;;;;;;;10.63;5.47;;;;;;;;;;5039953;28;99190;-80
2023/09/17 01:42:15;;;;;;;10.15;5.40;;;;;;;;;;5021560;28;99442;-79
2023/09/17 01:44:44;;;;;;;9.82;5.40;;;;;;;;;;5005395;28;101318;-79
2023/09/17 01:47:10;;;;;;;10.00;5.57;;;;;;;;;;5021883;28;97955;-80
2023/09/17 01:49:38;;;;;;;11.10;6.13;;;;;;;;;;5043240;28;98203;-80
2023/09/17 01:52:04;;;;;;;9.40;5.40;;;;;;;;;;5021589;28;99611;-80
2023/09/17 01:54:31;;;;;;;10.30;5.70;;;;;;;;;;5020879;28;98947;-80
2023/09/17 01:56:58;;;;;;;8.88;5.30;;;;;;;;;;5021707;28;99004;-79
2023/09/17 01:59:25;;;;;;;12.32;5.93;;;;;;;;;;5021463;28;101501;-80
2023/09/17 02:01:52;;;;;;;10.52;6.05;;;;;;;;;;5015202;28;98176;-79
2023/09/17 02:04:19;;;;;;;9.40;5.38;;;;;;;;;;5033981;28;98836;-79
2023/09/17 02:06:46;;;;;;;11.95;5.88;;;;;;;;;;5020645;28;101692;-80
2023/09/17 02:09:13;;;;;;;13.80;5.78;;;;;;;;;;5021469;28;98572;-79
2023/09/17 02:11:40;;;;;;;10.95;5.55;;;;;;;;;;5042794;28;98541;-80
2023/09/17 02:14:06;;;;;;;11.65;5.50;;;;;;;;;;5020652;28;98476;-79
2023/09/17 02:16:33;;;;;;;10.60;5.50;;;;;;;;;;5017685;28;100758;-79
2023/09/17 02:19:02;;;;;;;9.98;5.55;;;;;;;;;;5013354;28;102357;-79
2023/09/17 02:21:28;;;;;;;12.40;5.43;;;;;;;;;;5028009;28;98268;-79
2023/09/17 02:23:55;;;;;;;11.25;6.00;;;;;;;;;;5031153;28;98899;-78
2023/09/17 02:26:21;;;;;;;10.05;5.60;;;;;;;;;;5038759;28;98714;-77
2023/09/17 02:28:49;;;;;;;10.13;5.78;;;;;;;;;;5021496;28;98336;-78
2023/09/17 02:31:16;;;;;;;9.60;6.05;;;;;;;;;;5021443;28;99090;-78
2023/09/17 02:33:43;;;;;;;10.05;5.97;;;;;;;;;;5023576;28;101660;-79
2023/09/17 02:36:11;;;;;;;10.98;6.63;;;;;;;;;;5021272;28;101536;-79
2023/09/17 02:38:37;;;;;;;9.77;5.47;;;;;;;;;;5020374;28;100619;-78
2023/09/17 02:41:04;;;;;;;10.65;5.63;;;;;;;;;;5020795;28;98283;-80
2023/09/17 02:43:31;;;;;;;10.50;5.85;;;;;;;;;;5038437;28;99487;-79
2023/09/17 02:45:58;;;;;;;9.85;5.65;;;;;;;;;;5020497;28;101256;-79
2023/09/17 02:48:24;;;;;;;12.85;5.57;;;;;;;;;;5039073;28;98147;-79
2023/09/17 02:50:51;;;;;;;10.70;6.53;;;;;;;;;;5020454;28;100986;-79
2023/09/17 02:53:18;;;;;;;10.25;6.60;;;;;;;;;;5031357;28;98922;-79
2023/09/17 02:55:46;;;;;;;10.30;6.22;;;;;;;;;;5017207;28;98067;-79
2023/09/17 02:58:15;;;;;;;10.60;5.82;;;;;;;;;;5019927;28;99054;-79
2023/09/17 03:00:44;;;;;;;8.90;5.22;;;;;;;;;;5004655;28;97774;-79
2023/09/17 03:03:11;;;;;;;10.38;5.47;;;;;;;;;;5009562;28;100050;-79
2023/09/17 03:05:38;;;;;;;11.15;5.40;;;;;;;;;;5003572;28;101160;-78
2023/09/17 03:08:09;;;;;;;9.82;5.00;;;;;;;;;;5019704;28;100028;-79
2023/09/17 03:10:42;;;;;;;9.10;5.28;;;;;;;;;;5020204;28;100096;-80
2023/09/17 03:13:12;;;;;;;9.48;5.05;;;;;;;;;;5018253;28;101847;-80
2023/09/17 03:15:40;;;;;;;9.52;5.28;;;;;;;;;;5023506;28;98174;-81
2023/09/17 03:18:06;;;;;;;12.02;6.18;;;;;;;;;;5012625;28;101357;-79
2023/09/17 03:20:33;;;;;;;10.73;5.80;;;;;;;;;;5033592;28;98138;-78
2023/09/17 03:23:04;;;;;;;9.32;5.32;;;;;;;;;;5006183;28;100643;-79
2023/09/17 03:25:33;;;;;;;8.98;4.90;;;;;;;;;;4993572;28;99848;-79
2023/09/17 03:27:59;;;;;;;10.45;5.57;;;;;;;;;;5020171;28;98268;-78
2023/09/17 03:30:27;;;;;;;10.57;5.60;;;;;;;;;;5019620;28;100643;-79
2023/09/17 03:32:57;;;;;;;10.18;5.78;;;;;;;;;;5019095;28;102250;-79
2023/09/17 03:35:39;;;;;;;9.90;5.30;;;;;;;;;;5019942;28;98509;-79
2023/09/17 03:38:07;;;;;;;10.50;5.30;;;;;;;;;;5022733;28;98452;-78
2023/09/17 03:40:33;;;;;;;10.55;5.13;;;;;;;;;;5005872;28;98163;-77
2023/09/17 03:43:01;;;;;;;11.52;5.32;;;;;;;;;;5019966;28;100834;-78
2023/09/17 03:45:28;;;;;;;11.00;5.45;;;;;;;;;;5019818;28;101782;-78
2023/09/17 03:47:54;;;;;;;10.18;5.45;;;;;;;;;;5020112;28;98446;-78
2023/09/17 03:50:21;;;;;;;10.05;5.28;;;;;;;;;;5020241;28;101103;-78
2023/09/17 03:52:49;;;;;;;9.60;5.32;;;;;;;;;;5019622;28;101164;-78
2023/09/17 03:55:17;;;;;;;8.55;5.30;;;;;;;;;;5019931;28;98425;-78
2023/09/17 03:57:44;;;;;;;9.45;4.80;;;;;;;;;;5037788;28;99353;-78
2023/09/17 04:00:12;;;;;;;9.05;4.95;;;;;;;;;;5022605;28;101180;-78
2023/09/17 04:02:40;;;;;;;10.00;4.95;;;;;;;;;;5008874;28;100818;-79
2023/09/17 04:05:09;;;;;;;9.60;5.10;;;;;;;;;;5019399;28;101741;-80
2023/09/17 04:07:37;;;;;;;9.98;4.97;;;;;;;;;;5019914;28;98243;-79
2023/09/17 04:10:05;;;;;;;;;;;;;;;;;;5020031;28;100518;-79
2023/09/17 04:12:33;;;;;;;15.85;5.32;;;;;;;;;;4994467;28;101556;-80
2023/09/17 04:15:02;;;;;;;11.25;4.90;;;;;;;;;;5036265;28;97801;-79
2023/09/17 04:17:29;;;;;;;11.05;4.30;;;;;;;;;;5019572;28;98241;-80
2023/09/17 04:19:56;;;;;;;9.07;4.57;;;;;;;;;;5033318;28;98824;-79
2023/09/17 04:22:22;;;;;;;8.02;4.60;;;;;;;;;;5026933;28;98936;-80
2023/09/17 04:24:49;;;;;;;8.75;4.55;;;;;;;;;;5013815;28;101912;-79
2023/09/17 04:27:18;;;;;;;9.32;4.80;;;;;;;;;;5023089;28;98551;-80
2023/09/17 04:29:44;;;;;;;;;;;;;;;;;;5023603;28;101211;-79
2023/09/17 04:32:12;;;;;;;9.82;4.57;;;;;;;;;;5023593;28;109392;-80
2023/09/17 04:34:38;;;;;;;9.30;4.68;;;;;;;;;;5006520;28;98498;-80
2023/09/17 04:37:07;;;;;;;9.18;4.40;;;;;;;;;;5022447;28;101401;-80
2023/09/17 04:39:33;;;;;;;10.43;4.88;;;;;;;;;;5006364;28;100163;-79
2023/09/17 04:42:00;;;;;;;8.75;4.30;;;;;;;;;;5005834;28;98707;-79
2023/09/17 04:44:28;;;;;;;9.80;5.38;;;;;;;;;;5044125;28;98339;-78
2023/09/17 04:46:55;;;;;;;9.90;5.57;;;;;;;;;;5021850;28;99084;-79
2023/09/17 04:49:24;;;;;;;10.55;5.00;;;;;;;;;;5022595;28;100980;-79
2023/09/17 04:51:51;;;;;;;8.25;4.70;;;;;;;;;;5022121;28;101584;-79
2023/09/17 04:54:18;;;;;;;10.73;5.05;;;;;;;;;;5021622;28;98385;-79
2023/09/17 04:56:44;;;;;;;10.00;5.05;;;;;;;;;;4993073;28;100762;-80
2023/09/17 04:59:11;;;;;;;8.98;4.40;;;;;;;;;;5022302;28;98963;-80
2023/09/17 05:01:37;;;;;;;10.57;4.40;;;;;;;;;;5003158;28;98202;-79
2023/09/17 05:04:05;;;;;;;7.65;4.00;;;;;;;;;;5001355;28;101801;-79
2023/09/17 05:06:31;;;;;;;10.95;4.47;;;;;;;;;;5022423;28;98965;-78
2023/09/17 05:08:58;;;;;;;10.18;4.82;;;;;;;;;;5022218;28;98934;-79
2023/09/17 05:11:24;;;;;;;9.00;4.70;;;;;;;;;;5011100;28;101684;-79
2023/09/17 05:13:51;;;;;;;8.43;4.53;;;;;;;;;;5005408;28;98353;-79
2023/09/17 05:16:18;;;;;;;11.32;5.05;;;;;;;;;;5007245;28;98532;-79
2023/09/17 05:18:47;;;;;;;8.82;4.55;;;;;;;;;;4999594;28;100999;-79
2023/09/17 05:21:14;;;;;;;8.95;4.53;;;;;;;;;;5011689;28;98334;-80
2023/09/17 05:23:41;;;;;;;9.05;4.55;;;;;;;;;;5001244;28;101599;-79
2023/09/17 05:26:08;;;;;;;12.35;5.10;;;;;;;;;;5024817;28;101196;-80
2023/09/17 05:28:35;;;;;;;8.57;4.70;;;;;;;;;;5005725;28;98450;-78
2023/09/17 05:31:03;;;;;;;12.95;5.00;;;;;;;;;;5021309;28;101459;-78
2023/09/17 05:33:30;;;;;;;9.20;4.70;;;;;;;;;;5021890;28;98123;-78
2023/09/17 05:35:59;;;;;;;10.30;5.40;;;;;;;;;;5021316;27;100739;-79
2023/09/17 05:38:27;;;;;;;7.97;4.30;;;;;;;;;;5021162;28;101340;-79
2023/09/17 05:40:53;;;;;;;9.85;4.97;;;;;;;;;;5040180;28;98132;-79
2023/09/17 05:43:20;;;;;;;9.20;5.07;;;;;;;;;;5021955;28;101150;-79
2023/09/17 05:45:47;;;;;;;10.43;5.13;;;;;;;;;;5004619;28;101688;-78
2023/09/17 05:48:17;;;;;;;8.48;4.80;;;;;;;;;;5025020;28;98158;-78
2023/09/17 05:50:46;;;;;;;9.98;5.03;;;;;;;;;;5021170;28;101832;-78
2023/09/17 05:53:13;;;;;;;8.88;4.60;;;;;;;;;;5021924;28;97705;-79
2023/09/17 05:55:39;;;;;;;9.75;5.05;;;;;;;;;;5040047;28;98787;-78
2023/09/17 05:58:06;;;;;;;9.30;4.68;;;;;;;;;;5021128;28;99063;-78
2023/09/17 06:00:33;;;;;;;10.57;5.80;;;;;;;;;;5020987;28;98979;-78
2023/09/17 06:03:00;;;;;;;8.65;4.30;;;;;;;;;;5010363;28;101605;-78
2023/09/17 06:05:27;;;;;;;8.43;4.60;;;;;;;;;;5011726;28;99649;-79
2023/09/17 06:07:54;;;;;;;9.65;4.68;;;;;;;;;;5016761;28;98605;-79
2023/09/17 06:10:21;;;;;;;9.48;4.50;;;;;;;;;;5009464;28;98661;-79
2023/09/17 06:12:48;;;;;;;9.43;4.75;;;;;;;;;;5033472;28;98193;-79
2023/09/17 06:15:14;;;;;;;8.63;4.30;;;;;;;;;;5007038;28;100780;-79
2023/09/17 06:17:42;;;;;;;8.40;4.40;;;;;;;;;;5019818;28;100502;-79
2023/09/17 06:20:09;;;;;;;8.90;4.32;;;;;;;;;;5001724;28;98454;-80
2023/09/17 06:22:36;;;;;;;8.65;4.53;;;;;;;;;;5007294;28;101226;-79
2023/09/17 06:25:03;;;;;;;9.85;5.10;;;;;;;;;;5016990;28;101889;-79
2023/09/17 06:27:30;;;;;;;10.93;4.60;;;;;;;;;;4997554;28;98545;-79
2023/09/17 06:29:56;;;;;;;12.02;5.30;;;;;;;;;;4998785;28;101290;-79
2023/09/17 06:32:23;;;;;;;9.85;5.35;;;;;;;;;;5023379;28;101585;-79
2023/09/17 06:34:50;;;;;;;9.18;4.68;;;;;;;;;;5010954;28;101236;-78
2023/09/17 06:37:17;;;;;;;8.60;4.20;;;;;;;;;;5031438;28;99075;-79
2023/09/17 06:39:45;;;;;;;7.95;4.20;;;;;;;;;;5011911;28;98707;-79
2023/09/17 06:42:12;;;;;;;9.00;4.00;;;;;;;;;;5003891;28;101182;-79
2023/09/17 06:44:39;;;;;;;8.23;4.20;;;;;;;;;;5038450;28;98836;-80
2023/09/17 06:47:06;;;;;;;9.68;4.70;;;;;;;;;;5038097;28;98199;-79
2023/09/17 06:49:33;;;;;;;7.93;4.35;;;;;;;;;;5019411;28;98960;-80
2023/09/17 06:52:00;;;;;;;10.40;4.20;;;;;;;;;;5002962;28;101222;-80
2023/09/17 06:54:26;;;;;;;10.75;4.72;;;;;;;;;;5021162;28;98591;-80
2023/09/17 06:56:53;;;;;;;10.30;4.40;;;;;;;;;;5026601;28;98839;-80
2023/09/17 06:59:19;;;;;;;8.43;4.05;;;;;;;;;;5038547;28;98084;-80
2023/09/17 07:01:46;;;;;;;9.35;4.75;;;;;;;;;;4995801;28;100721;-80
2023/09/17 07:04:13;;;;;;;9.02;4.28;;;;;;;;;;5006287;28;99236;-79
2023/09/17 07:06:39;;;;;;;8.48;4.32;;;;;;;;;;5038737;28;97355;-79
2023/09/17 07:09:07;;;;;;;9.38;4.40;;;;;;;;;;5033449;28;98494;-79
2023/09/17 07:11:34;;;;;;;7.68;4.00;;;;;;;;;;5037675;28;99372;-80
2023/09/17 07:14:05;;;;;;;9.43;3.92;;;;;;;;;;5004632;28;101205;-79
2023/09/17 07:16:32;;;;;;;8.27;3.72;;;;;;;;;;5018838;28;99495;-79
2023/09/17 07:18:58;;;;;;;12.18;3.67;;;;;;;;;;5033142;28;98367;-79
2023/09/17 07:21:25;;;;;;;8.32;3.65;;;;;;;;;;4994343;28;101275;-80
2023/09/17 07:23:52;;;;;;;16.25;4.15;;;;;;;;;;5028688;28;100079;-79
2023/09/17 07:26:20;;;;;;;7.03;3.60;;;;;;;;;;5038036;28;98113;-79
2023/09/17 07:28:46;;;;;;;17.90;4.03;;;;;;;;;;5002960;28;100937;-78
2023/09/17 07:31:13;;;;;;;10.23;4.00;;;;;;;;;;5020242;28;98010;-77
2023/09/17 07:33:42;;;;;;;8.02;3.72;;;;;;;;;;5037842;28;98697;-78
2023/09/17 07:36:09;;;;;;;9.50;3.80;;;;;;;;;;5023039;28;98713;-78
2023/09/17 07:38:36;;;;;;;9.77;4.95;;;;;;;;;;5018462;28;98991;-79
2023/09/17 07:41:03;;;;;;;9.07;4.32;;;;;;;;;;5018062;28;99608;-77
2023/09/17 07:43:29;;;;;;;10.15;3.42;;;;;;;;;;5016845;28;98771;-78
2023/09/17 07:45:56;;;;;;;10.32;4.00;;;;;;;;;;5034216;28;98306;-77
2023/09/17 07:48:25;;;;;;;8.15;3.95;;;;;;;;;;5012951;28;100746;-78
2023/09/17 07:50:56;;;;;;;8.52;3.75;;;;;;;;;;5016670;28;99609;-80
2023/09/17 07:53:24;;;;;;;6.68;3.40;;;;;;;;;;5029205;28;98148;-77
2023/09/17 07:55:51;;;;;;;8.73;3.30;;;;;;;;;;5007576;28;98811;-78
2023/09/17 07:58:17;;;;;;;7.82;3.38;;;;;;;;;;5032062;28;98769;-78
2023/09/17 08:00:48;;;;;;;8.88;3.10;;;;;;;;;;5038387;27;98878;-79
2023/09/17 08:03:18;;;;;;;6.20;2.78;;;;;;;;;;5017347;28;99696;-78
2023/09/17 08:05:49;;;;;;;7.72;3.30;;;;;;;;;;5022630;28;98199;-79
2023/09/17 08:08:16;;;;;;;8.07;3.20;;;;;;;;;;5013039;28;98505;-79
2023/09/17 08:10:43;;;;;;;7.80;3.10;;;;;;;;;;5040179;28;99900;-79
2023/09/17 08:13:10;;;;;;;6.78;3.00;;;;;;;;;;5036457;28;98208;-78
2023/09/17 08:15:37;;;;;;;6.90;3.15;;;;;;;;;;5019652;28;98737;-78
2023/09/17 08:18:04;;;;;;;6.03;2.83;;;;;;;;;;5011625;28;100930;-77
2023/09/17 08:20:32;;;;;;;;;;;;;;;;;;5025849;28;97768;-78
2023/09/17 08:22:59;;;;;;;6.82;2.75;;;;;;;;;;5037759;28;110263;-78
2023/09/17 08:25:26;;;;;;;8.98;3.05;;;;;;;;;;5020850;28;98179;-79
2023/09/17 08:27:53;;;;;;;6.68;3.20;;;;;;;;;;5020151;28;100359;-78
2023/09/17 08:30:20;;;;;;;6.00;3.00;;;;;;;;;;5038358;28;100219;-79
2023/09/17 08:32:46;;;;;;;8.63;2.90;;;;;;;;;;5021663;28;98754;-79
2023/09/17 08:35:14;;;;;;;7.63;3.10;;;;;;;;;;5040509;28;99208;-79
2023/09/17 08:37:42;;;;;;;7.68;3.08;;;;;;;;;;5040246;28;99393;-79
2023/09/17 08:40:09;;;;;;;6.55;2.90;;;;;;;;;;5037574;28;98572;-77
2023/09/17 08:42:42;;;;;;;5.60;2.58;;;;;;;;;;5036260;28;98974;-77
2023/09/17 08:45:10;;;;;;;5.70;2.63;;;;;;;;;;5023317;28;97408;-77
2023/09/17 08:47:37;;;;;;;;;;;;;;;;;;5034073;28;99411;-77
2023/09/17 08:50:04;;;;;;;7.20;2.80;;;;;;;;;;5039537;28;110551;-80
2023/09/17 08:52:31;;;;;;;;;;;;;;;;;;5005243;28;98867;-78
2023/09/17 08:54:57;;;;;;;7.80;4.43;;;;;;;;;;5034819;28;98813;-77
2023/09/17 08:57:25;;;;;;;6.03;3.00;;;;;;;;;;4988541;28;100991;-80
2023/09/17 09:00:01;;;;;;;6.90;3.75;;;;;;;;;;5033215;28;98234;-79
2023/09/17 09:02:30;;;;;;;8.00;3.42;;;;;;;;;;5023141;28;98290;-78
2023/09/17 09:04:57;;;;;;;8.95;4.82;;;;;;;;;;5023522;28;98635;-78
2023/09/17 09:07:25;;;;;;;8.88;4.68;;;;;;;;;;5040035;28;98403;-78
2023/09/17 09:09:52;;;;;;;8.93;4.82;;;;;;;;;;5039895;28;98206;-79
2023/09/17 09:12:19;;;;;;;7.80;3.75;;;;;;;;;;5021348;28;98259;-78
2023/09/17 09:14:46;;;;;;;7.00;3.42;;;;;;;;;;5034706;28;98304;-78
2023/09/17 09:17:15;;;;;;;8.10;4.30;;;;;;;;;;5016590;28;99652;-78
2023/09/17 09:19:42;;;;;;;9.27;4.60;;;;;;;;;;5011127;28;98125;-79
2023/09/17 09:22:09;;;;;;;6.82;4.03;;;;;;;;;;5006657;28;100988;-79
2023/09/17 09:24:45;;;;;;;8.23;3.90;;;;;;;;;;5015326;28;98865;-78
2023/09/17 09:27:13;;;;;;;7.53;3.75;;;;;;;;;;5017984;28;98244;-79
2023/09/17 09:29:42;;;;;;;;;;;;;;;;;;5018575;28;99166;-79
2023/09/17 09:32:09;;;;;;;6.93;3.63;;;;;;;;;;5021034;28;98655;-77
2023/09/17 09:34:36;;;;;;;;;;;;;;;;;;5020346;28;98268;-78
2023/09/17 09:37:03;;;;;;;7.10;3.50;;;;;;;;;;5014712;28;113418;-77
2023/09/17 09:39:31;;;;;;;7.28;3.50;;;;;;;;;;5009057;28;98273;-80
2023/09/17 09:41:58;;;;;;;10.73;6.13;;;;;;;;;;5006998;28;98850;-79
2023/09/17 09:44:24;;;;;;;8.63;4.65;;;;;;;;;;5006834;28;99208;-79
2023/09/17 09:46:57;;;;;;;10.43;5.97;;;;;;;;;;5020457;28;98602;-79
2023/09/17 09:49:24;;;;;;;9.13;5.05;;;;;;;;;;4993122;28;100075;-79
2023/09/17 09:51:55;;;;;;;8.38;4.00;;;;;;;;;;5019210;28;98393;-79
2023/09/17 09:54:21;;;;;;;9.27;4.78;;;;;;;;;;5014006;28;100921;-78
2023/09/17 09:56:48;;;;;;;8.70;4.53;;;;;;;;;;5007842;28;100577;-80
2023/09/17 09:59:15;;;;;;;8.55;4.45;;;;;;;;;;5018208;28;97925;-79
2023/09/17 10:01:42;;;;;;;8.07;4.10;;;;;;;;;;5003508;28;98041;-78
2023/09/17 10:04:09;;;;;;;11.02;5.65;;;;;;;;;;5000832;28;100225;-81
2023/09/17 10:06:37;;;;;;;13.32;5.25;;;;;;;;;;5002923;28;99140;-79
2023/09/17 10:09:03;;;;;;;14.27;8.73;;;;;;;;;;4986685;28;99814;-79
2023/09/17 10:11:30;;;;;;;13.25;6.13;;;;;;;;;;5018984;28;98429;-78
2023/09/17 10:14:04;;;;;;;11.50;6.15;;;;;;;;;;4997511;28;100636;-78
2023/09/17 10:16:30;;;;;;;12.50;5.10;;;;;;;;;;5000710;28;98595;-78
2023/09/17 10:18:58;;;;;;;12.75;6.93;;;;;;;;;;4998913;28;98802;-78
2023/09/17 10:21:26;;;;;;;10.18;6.00;;;;;;;;;;5004900;28;99143;-78
2023/09/17 10:23:52;;;;;;;;;;;;;;;;;;5011246;28;98480;-77
2023/09/17 10:26:21;;;;;;;12.18;6.07;;;;;;;;;;5017526;28;109660;-77
2023/09/17 10:28:47;;;;;;;10.90;6.70;;;;;;;;;;5016104;28;98594;-78
2023/09/17 10:31:15;;;;;;;14.18;8.35;;;;;;;;;;5010541;28;99538;-77
2023/09/17 10:33:46;;;;;;;11.30;6.10;;;;;;;;;;5017911;28;99323;-78
2023/09/17 10:36:13;;;;;;;10.70;5.20;;;;;;;;;;5015996;28;101315;-78
2023/09/17 10:38:41;;;;;;;10.73;5.65;;;;;;;;;;5016147;28;98628;-78
2023/09/17 10:41:10;;;;;;;11.48;6.28;;;;;;;;;;5013297;28;98561;-78
2023/09/17 10:43:37;;;;;;;15.02;7.72;;;;;;;;;;5000022;28;98758;-77
2023/09/17 10:46:06;;;;;;;13.43;7.60;;;;;;;;;;5017910;28;98145;-79
2023/09/17 10:48:33;;;;;;;11.18;6.00;;;;;;;;;;5004993;28;99073;-80
2023/09/17 10:51:00;;;;;;;13.60;7.75;;;;;;;;;;5016000;28;98770;-81
2023/09/17 10:53:27;;;;;;;10.38;5.75;;;;;;;;;;5020292;28;98521;-79
2023/09/17 10:56:00;;;;;;;10.07;4.57;;;;;;;;;;5015548;28;99989;-79
2023/09/17 10:58:27;;;;;;;;;;;;;;;;;;5016985;28;98720;-79
2023/09/17 11:00:53;;;;;;;16.20;8.52;;;;;;;;;;5019431;28;98628;-79
2023/09/17 11:03:22;;;;;;;20.85;12.10;;;;;;;;;;4993150;28;99263;-79
2023/09/17 11:05:50;;;;;;;19.85;11.98;;;;;;;;;;4998758;28;98245;-79
2023/09/17 11:08:17;;;;;;;19.70;12.70;;;;;;;;;;5014013;28;99352;-79
2023/09/17 11:10:44;;;;;;;11.90;7.13;;;;;;;;;;5016491;28;99169;-79
2023/09/17 11:13:11;;;;;;;16.63;9.75;;;;;;;;;;5017698;28;97593;-78
2023/09/17 11:15:39;;;;;;;15.50;9.80;;;;;;;;;;5021104;28;98327;-79
2023/09/17 11:18:07;;;;;;;20.65;11.05;;;;;;;;;;4997883;28;98369;-78
2023/09/17 11:20:35;;;;;;;19.52;11.18;;;;;;;;;;4992706;28;99358;-79
2023/09/17 11:23:03;;;;;;;17.88;9.93;;;;;;;;;;5016480;28;99700;-79
2023/09/17 11:25:33;;;;;;;20.60;12.43;;;;;;;;;;5007873;28;98337;-79
2023/09/17 11:28:07;;;;;;;25.80;15.63;;;;;;;;;;5033777;28;99035;-79
2023/09/17 11:30:53;;;;;;;21.50;11.93;;;;;;;;;;5018568;28;98935;-80
2023/09/17 11:33:22;;;;;;;14.00;7.75;;;;;;;;;;5011003;28;98187;-79
2023/09/17 11:35:49;;;;;;;19.25;9.68;;;;;;;;;;5039792;28;98753;-79
2023/09/17 11:38:15;;;;;;;24.02;14.18;;;;;;;;;;5037640;28;97465;-79
2023/09/17 11:40:43;;;;;;;19.58;11.35;;;;;;;;;;5016829;28;100370;-79
2023/09/17 11:43:11;;;;;;;13.35;7.45;;;;;;;;;;5020293;28;99663;-79
2023/09/17 11:45:39;;;;;;;15.93;8.88;;;;;;;;;;5035919;28;100583;-78
2023/09/17 11:48:06;;;;;;;14.27;7.68;;;;;;;;;;5028838;28;99293;-79
2023/09/17 11:50:33;;;;;;;;;;;;;;;;;;5037233;28;98605;-78
2023/09/17 11:53:02;;;;;;;24.10;13.90;;;;;;;;;;5037669;28;107776;-78
2023/09/17 11:55:29;;;;;;;28.90;16.70;;;;;;;;;;5036154;28;99227;-79
2023/09/17 11:58:12;;;;;;;29.80;17.08;;;;;;;;;;5020832;28;98766;-79
2023/09/17 12:00:39;;;;;;;23.10;13.88;;;;;;;;;;5036348;28;98904;-79
2023/09/17 12:03:06;;;;;;;29.50;15.77;;;;;;;;;;5006991;28;98478;-79
2023/09/17 12:05:33;;;;;;;;;;;;;;;;;;5017921;28;98820;-79
2023/09/17 12:08:01;;;;;;;28.52;17.33;;;;;;;;;;5038718;28;98802;-79
2023/09/17 12:10:29;;;;;;;32.13;18.17;;;;;;;;;;5034724;28;99934;-79
2023/09/17 12:12:55;;;;;;;30.58;17.77;;;;;;;;;;5035324;28;98386;-79
2023/09/17 12:15:22;;;;;;;34.88;17.73;;;;;;;;;;5017921;28;98353;-79
2023/09/17 12:17:49;;;;;;;35.08;20.70;;;;;;;;;;5003848;28;99039;-79
2023/09/17 12:20:40;;;;;;;32.80;17.73;;;;;;;;;;5035685;28;98273;-79
2023/09/17 12:23:15;;;;;;;36.38;19.38;;;;;;;;;;5022372;28;98831;-79
2023/09/17 12:25:42;;;;;;;31.15;18.08;;;;;;;;;;5035465;28;98559;-79
2023/09/17 12:28:09;;;;;;;34.97;18.67;;;;;;;;;;5036036;28;98866;-78
2023/09/17 12:30:36;;;;;;;37.53;21.77;;;;;;;;;;5017712;28;99766;-80
2023/09/17 12:33:02;;;;;;;36.95;20.02;;;;;;;;;;5035578;28;98116;-80
2023/09/17 12:35:29;;;;;;;35.20;19.40;;;;;;;;;;5035094;28;98897;-79
2023/09/17 12:37:56;;;;;;;38.35;20.58;;;;;;;;;;5035241;28;100239;-78
2023/09/17 12:40:36;;;;;;;36.63;19.17;;;;;;;;;;5017152;28;98715;-81
2023/09/17 12:43:29;;;;;;;28.73;13.88;;;;;;;;;;4993640;28;100344;-83
2023/09/17 12:46:07;;;;;;;40.08;19.13;;;;;;;;;;5038867;28;98079;-82
2023/09/17 12:48:38;;;;;;;29.50;13.88;;;;;;;;;;5037925;28;98247;-82
2023/09/17 12:51:11;;;;;;;29.55;15.52;;;;;;;;;;5038147;28;99031;-83
2023/09/17 12:53:52;;;;;;;30.17;16.58;;;;;;;;;;5039344;28;97634;-83
2023/09/17 12:56:22;;;;;;;35.45;18.17;;;;;;;;;;5038790;28;98126;-83
2023/09/17 12:58:58;;;;;;;30.90;15.00;;;;;;;;;;5038591;28;98557;-84
2023/09/17 13:01:27;;;;;;;34.80;17.02;;;;;;;;;;5037070;28;99410;-82
2023/09/17 13:03:58;;;;;;;34.33;17.40;;;;;;;;;;5020450;28;99112;-84
2023/09/17 13:06:39;;;;;;;31.13;15.95;;;;;;;;;;5039797;28;99514;-84
2023/09/17 13:09:10;;;;;;;30.20;14.90;;;;;;;;;;5020734;28;100228;-85
2023/09/17 13:11:44;;;;;;;26.52;13.00;;;;;;;;;;5038406;28;98410;-84
2023/09/17 13:14:17;;;;;;;34.63;17.13;;;;;;;;;;5038740;28;98781;-84
2023/09/17 13:16:48;;;;;;;31.83;17.20;;;;;;;;;;5037807;28;98285;-83
2023/09/17 13:19:19;;;;;;;36.78;19.10;;;;;;;;;;5005246;28;100799;-83
2023/09/17 13:21:49;;;;;;;29.85;16.25;;;;;;;;;;5004752;28;98308;-84
2023/09/17 13:24:21;;;;;;;38.28;20.38;;;;;;;;;;5022337;28;98788;-83
2023/09/17 13:26:57;;;;;;;31.77;16.60;;;;;;;;;;5035278;28;100665;-83
2023/09/17 13:29:31;;;;;;;38.40;20.40;;;;;;;;;;5023862;28;98160;-84
2023/09/17 13:32:07;;;;;;;38.58;20.42;;;;;;;;;;5020623;28;98596;-82
2023/09/17 13:34:39;;;;;;;36.45;19.23;;;;;;;;;;5004583;28;98875;-83
2023/09/17 13:37:13;;;;;;;37.30;18.77;;;;;;;;;;5017732;28;100120;-82
2023/09/17 13:39:43;;;;;;;36.80;19.08;;;;;;;;;;5025269;28;98708;-83
2023/09/17 13:42:19;;;;;;;32.58;16.45;;;;;;;;;;5031888;28;98446;-84
2023/09/17 13:44:56;;;;;;;40.40;20.60;;;;;;;;;;5024155;28;100245;-84
2023/09/17 13:47:36;;;;;;;38.70;20.00;;;;;;;;;;5015387;28;98735;-83
2023/09/17 13:50:19;;;;;;;42.08;20.92;;;;;;;;;;5027200;28;98143;-83
2023/09/17 13:53:00;;;;;;;36.40;19.08;;;;;;;;;;5019364;28;101027;-83
2023/09/17 13:55:33;;;;;;;38.78;21.20;;;;;;;;;;5000881;28;100346;-84
2023/09/17 13:58:11;;;;;;;38.55;21.35;;;;;;;;;;5020318;28;99570;-83
2023/09/17 14:00:52;;;;;;;37.45;19.77;;;;;;;;;;5014471;28;98804;-83
2023/09/17 14:03:31;;;;;;;38.85;19.13;;;;;;;;;;5027522;28;98469;-82
2023/09/17 14:06:15;;;;;;;35.45;19.48;;;;;;;;;;5015415;28;98512;-84
2023/09/17 14:09:02;;;;;;;28.10;14.27;;;;;;;;;;5037989;28;98685;-83
2023/09/17 14:11:39;;;;;;;33.95;18.65;;;;;;;;;;5006034;28;97451;-83
2023/09/17 14:14:07;;;;;;;35.85;19.23;;;;;;;;;;5020442;28;98230;-84
2023/09/17 14:16:42;;;;;;;36.25;18.13;;;;;;;;;;5001750;28;98543;-83
2023/09/17 14:19:17;;;;;;;29.63;16.52;;;;;;;;;;4988624;28;99051;-85
2023/09/17 14:21:50;;;;;;;32.78;16.77;;;;;;;;;;4982611;28;98561;-84
2023/09/17 14:24:25;;;;;;;34.30;19.20;;;;;;;;;;4983974;28;98726;-84
2023/09/17 14:26:55;;;;;;;34.58;18.88;;;;;;;;;;4994030;28;98761;-83
2023/09/17 14:29:28;;;;;;;36.70;19.48;;;;;;;;;;4987500;28;98837;-83
2023/09/17 14:32:02;;;;;;;32.22;16.85;;;;;;;;;;4995324;28;98115;-83
2023/09/17 14:34:32;;;;;;;21.65;11.25;;;;;;;;;;4988782;28;98317;-83
2023/09/17 14:37:07;;;;;;;30.75;16.83;;;;;;;;;;4996630;28;99788;-83
2023/09/17 14:39:36;;;;;;;20.00;10.70;;;;;;;;;;4987130;28;98052;-83
2023/09/17 14:42:06;;;;;;;32.70;17.25;;;;;;;;;;4985706;28;99529;-83